Nagaleader — VRDD5 — position and weather

sailwx.info

Track history (hours):
 
Tides and Currents Weather Stations Pressure Air Temp Water Temp Dewpoint Dewpoint Depression Visibility Wind Speed Wind Dir Waves Ship Positions

Nagaleader

Last reported at 2016-Sep-29 16:33 UTC. Time now 2016-Sep-29 18:43 UTC.
Position N 22°35' E 120°18'.

Length 113 m; draft 5.8 m.

Type: Cargo ship. MMSI: 477926700.

Date/timePositionNaut miles runAvg speedWind from/ knotsBaromVisibWave heightAir tempDewpointWater temp
2016-Sep-29 16:33N 22°35' E 120°18'2 1.8
2016-Sep-29 15:31N 22°34' E 120°19'0 0.1
2016-Sep-29 14:31N 22°34' E 120°19'0 0.0
2016-Sep-29 13:31N 22°34' E 120°19'0 0.0
2016-Sep-29 08:31N 22°34' E 120°19'0 0.1
2016-Sep-29 07:31N 22°34' E 120°19'  
2016-Sep-25 17:27N 26°00' E 119°29'0 0.0
2016-Sep-25 16:33N 26°00' E 119°29'0 0.0
2016-Sep-25 15:27N 26°00' E 119°29'0 0.0
2016-Sep-25 14:33N 26°00' E 119°29'0 0.0
2016-Sep-25 12:21N 26°00' E 119°29'0 0.0
2016-Sep-25 11:33N 26°00' E 119°29'0 0.0
2016-Sep-25 10:33N 26°00' E 119°29'0 0.0
2016-Sep-25 09:32N 26°00' E 119°29'0 0.0
2016-Sep-25 04:17N 26°00' E 119°29'212 8.5
2016-Sep-24 03:29N 22°34' E 120°19'0 0.0
2016-Sep-24 02:29N 22°34' E 120°19'0 0.0
2016-Sep-24 01:29N 22°34' E 120°19'0 0.0
2016-Sep-24 00:23N 22°34' E 120°19'0 0.0
2016-Sep-23 19:29N 22°34' E 120°19'0 0.0
2016-Sep-23 17:29N 22°34' E 120°19'4 4.2
2016-Sep-23 16:33N 22°32' E 120°15'7 7.5
2016-Sep-23 15:33N 22°38' E 120°10'21211.0
2016-Sep-22 20:17N 26°07' E 119°33'8 1.0
2016-Sep-22 12:18N 26°00' E 119°29'5 0.6
2016-Sep-22 04:32N 26°04' E 119°31'215 8.6
2016-Sep-21 03:33N 22°33' E 120°15'3 3.5
2016-Sep-21 02:34N 22°34' E 120°19'7 0.4
2016-Sep-20 10:33N 22°34' E 120°12'  
Track history (hours):
 
Tides and Currents Weather Stations Pressure Air Temp Water Temp Dewpoint Dewpoint Depression Visibility Wind Speed Wind Dir Waves Ship Positions

Nagaleader

Last reported at 2016-Sep-29 16:33 UTC. Time now 2016-Sep-29 18:43 UTC.
Position N 22°35' E 120°18'.

Length 113 m; draft 5.8 m.

Type: Cargo ship. MMSI: 477926700.

Date/timePositionNaut miles runAvg speedWind from/ knotsBaromVisibWave heightAir tempDewpointWater temp
2016-Sep-29 16:33N 22°35' E 120°18'2 1.8
2016-Sep-29 15:31N 22°34' E 120°19'0 0.1
2016-Sep-29 14:31N 22°34' E 120°19'0 0.0
2016-Sep-29 13:31N 22°34' E 120°19'0 0.0
2016-Sep-29 08:31N 22°34' E 120°19'0 0.1
2016-Sep-29 07:31N 22°34' E 120°19'  
2016-Sep-25 17:27N 26°00' E 119°29'0 0.0
2016-Sep-25 16:33N 26°00' E 119°29'0 0.0
2016-Sep-25 15:27N 26°00' E 119°29'0 0.0
2016-Sep-25 14:33N 26°00' E 119°29'0 0.0
2016-Sep-25 12:21N 26°00' E 119°29'0 0.0
2016-Sep-25 11:33N 26°00' E 119°29'0 0.0
2016-Sep-25 10:33N 26°00' E 119°29'0 0.0
2016-Sep-25 09:32N 26°00' E 119°29'0 0.0
2016-Sep-25 04:17N 26°00' E 119°29'212 8.5
2016-Sep-24 03:29N 22°34' E 120°19'0 0.0
2016-Sep-24 02:29N 22°34' E 120°19'0 0.0
2016-Sep-24 01:29N 22°34' E 120°19'0 0.0
2016-Sep-24 00:23N 22°34' E 120°19'0 0.0
2016-Sep-23 19:29N 22°34' E 120°19'0 0.0
2016-Sep-23 17:29N 22°34' E 120°19'4 4.2
2016-Sep-23 16:33N 22°32' E 120°15'7 7.5
2016-Sep-23 15:33N 22°38' E 120°10'21211.0
2016-Sep-22 20:17N 26°07' E 119°33'8 1.0
2016-Sep-22 12:18N 26°00' E 119°29'5 0.6
2016-Sep-22 04:32N 26°04' E 119°31'215 8.6
2016-Sep-21 03:33N 22°33' E 120°15'3 3.5
2016-Sep-21 02:34N 22°34' E 120°19'7 0.4
2016-Sep-20 10:33N 22°34' E 120°12'  

Dump ship's entire track history